Maersk Kobe — 9HA3376 — position and weather

sailwx.info

Track history (hours):
 
Tides and Currents Weather Stations Pressure Air Temp Water Temp Dewpoint Dewpoint Depression Visibility Wind Speed Wind Dir Waves Ship Positions

Maersk Kobe

Last reported at 2017-Nov-20 00:29 UTC. Time now 2017-Nov-21 23:09 UTC.
Position N 39°49' W 031°12'.

Length 304 m; draft 10.6 m.

Type: Cargo ship. MMSI: 229521000.

Date/timePositionNaut miles runAvg speedWind from/ knotsBaromVisibWave heightAir tempDewpointWater temp
2017-Nov-20 00:29N 39°49' W 031°12'713.9
2017-Nov-19 23:57N 39°50' W 031°22'613.9
2017-Nov-19 23:30N 39°50' W 031°30'713.8
2017-Nov-19 23:00N 39°51' W 031°39'713.7
2017-Nov-19 22:30N 39°51' W 031°48'713.5
2017-Nov-19 22:01N 39°52' W 031°57'1213.8
2017-Nov-19 21:08N 39°53' W 032°12'213.9
2017-Nov-19 20:59N 39°53' W 032°15'  
2017-Nov-12 09:02N 31°54' W 080°26'016.1
2017-Nov-12 09:00N 31°54' W 080°27'510.2
2017-Nov-12 08:30N 31°54' W 080°33'5 9.8
2017-Nov-12 08:00N 31°55' W 080°38'5 9.0
2017-Nov-12 07:30N 31°58' W 080°43'815.3
2017-Nov-12 07:00N 32°02' W 080°50'611.9
2017-Nov-12 06:30N 32°04' W 080°57'510.0
2017-Nov-12 06:00N 32°05' W 081°02'4 7.3
2017-Nov-12 05:30N 32°06' W 081°07'2 3.2
2017-Nov-12 04:57N 32°07' W 081°08'0 0.0
2017-Nov-12 04:27N 32°07' W 081°08'0 0.0
2017-Nov-12 03:45N 32°07' W 081°08'0 0.0
2017-Nov-12 03:21N 32°07' W 081°08'0 0.0
2017-Nov-12 02:57N 32°07' W 081°08'0 0.0
2017-Nov-12 02:27N 32°07' W 081°08'0 0.0
2017-Nov-12 01:51N 32°07' W 081°08'0 0.0
2017-Nov-12 01:27N 32°07' W 081°08'0 0.0
2017-Nov-12 00:57N 32°07' W 081°08'0 0.0
2017-Nov-12 00:27N 32°07' W 081°08'0 0.0
2017-Nov-11 23:51N 32°07' W 081°08'0 0.0
2017-Nov-11 23:27N 32°07' W 081°08'0 0.0
2017-Nov-11 22:57N 32°07' W 081°08'0 0.0
2017-Nov-11 22:27N 32°07' W 081°08'0 0.0
2017-Nov-11 21:57N 32°07' W 081°08'0 0.0
2017-Nov-11 21:27N 32°07' W 081°08'0 0.0
2017-Nov-11 20:57N 32°07' W 081°08'0 0.0
2017-Nov-11 20:27N 32°07' W 081°08'0 0.0
2017-Nov-11 19:51N 32°07' W 081°08'0 0.0
2017-Nov-11 19:27N 32°07' W 081°08'0 0.0
2017-Nov-11 18:57N 32°07' W 081°08'0 0.0
2017-Nov-11 18:27N 32°07' W 081°08'0 0.0
2017-Nov-11 17:57N 32°07' W 081°08'0 0.0
2017-Nov-11 17:15N 32°07' W 081°08'0 0.0
2017-Nov-11 16:57N 32°07' W 081°08'0 0.0
2017-Nov-11 16:21N 32°07' W 081°08'0 0.0
2017-Nov-11 15:51N 32°07' W 081°08'0 0.0
2017-Nov-11 15:27N 32°07' W 081°08'0 0.0
2017-Nov-11 14:51N 32°07' W 081°08'0 0.0
2017-Nov-11 14:27N 32°07' W 081°08'0 0.0
2017-Nov-11 13:57N 32°07' W 081°08'0 0.0
2017-Nov-11 13:27N 32°07' W 081°08'0 0.0
2017-Nov-11 12:58N 32°07' W 081°08'1 1.7
2017-Nov-11 12:30N 32°08' W 081°08'1 2.5
2017-Nov-11 12:00N 32°07' W 081°08'2 4.4
2017-Nov-11 11:30N 32°05' W 081°06'3 5.6
2017-Nov-11 11:00N 32°05' W 081°03'4 7.6
2017-Nov-11 10:30N 32°04' W 080°58'510.5
2017-Nov-11 10:00N 32°02' W 080°53'611.3
2017-Nov-11 09:30N 31°59' W 080°47'612.6
2017-Nov-11 09:00N 31°57' W 080°40'5 9.1
2017-Nov-11 08:30N 31°55' W 080°35'4 8.5
2017-Nov-11 08:00N 31°54' W 080°30'3 6.1
2017-Nov-11 07:30N 31°52' W 080°27'1 1.6
2017-Nov-11 07:00N 31°53' W 080°26'1 1.6
2017-Nov-11 06:29N 31°53' W 080°25'2 2.0
2017-Nov-11 05:38N 31°54' W 080°23'3 8.5
2017-Nov-11 05:20N 31°55' W 080°21'  
Track history (hours):
 
Tides and Currents Weather Stations Pressure Air Temp Water Temp Dewpoint Dewpoint Depression Visibility Wind Speed Wind Dir Waves Ship Positions

Maersk Kobe

Last reported at 2017-Nov-20 00:29 UTC. Time now 2017-Nov-21 23:09 UTC.
Position N 39°49' W 031°12'.

Length 304 m; draft 10.6 m.

Type: Cargo ship. MMSI: 229521000.

Date/timePositionNaut miles runAvg speedWind from/ knotsBaromVisibWave heightAir tempDewpointWater temp
2017-Nov-20 00:29N 39°49' W 031°12'713.9
2017-Nov-19 23:57N 39°50' W 031°22'613.9
2017-Nov-19 23:30N 39°50' W 031°30'713.8
2017-Nov-19 23:00N 39°51' W 031°39'713.7
2017-Nov-19 22:30N 39°51' W 031°48'713.5
2017-Nov-19 22:01N 39°52' W 031°57'1213.8
2017-Nov-19 21:08N 39°53' W 032°12'213.9
2017-Nov-19 20:59N 39°53' W 032°15'  
2017-Nov-12 09:02N 31°54' W 080°26'016.1
2017-Nov-12 09:00N 31°54' W 080°27'510.2
2017-Nov-12 08:30N 31°54' W 080°33'5 9.8
2017-Nov-12 08:00N 31°55' W 080°38'5 9.0
2017-Nov-12 07:30N 31°58' W 080°43'815.3
2017-Nov-12 07:00N 32°02' W 080°50'611.9
2017-Nov-12 06:30N 32°04' W 080°57'510.0
2017-Nov-12 06:00N 32°05' W 081°02'4 7.3
2017-Nov-12 05:30N 32°06' W 081°07'2 3.2
2017-Nov-12 04:57N 32°07' W 081°08'0 0.0
2017-Nov-12 04:27N 32°07' W 081°08'0 0.0
2017-Nov-12 03:45N 32°07' W 081°08'0 0.0
2017-Nov-12 03:21N 32°07' W 081°08'0 0.0
2017-Nov-12 02:57N 32°07' W 081°08'0 0.0
2017-Nov-12 02:27N 32°07' W 081°08'0 0.0
2017-Nov-12 01:51N 32°07' W 081°08'0 0.0
2017-Nov-12 01:27N 32°07' W 081°08'0 0.0
2017-Nov-12 00:57N 32°07' W 081°08'0 0.0
2017-Nov-12 00:27N 32°07' W 081°08'0 0.0
2017-Nov-11 23:51N 32°07' W 081°08'0 0.0
2017-Nov-11 23:27N 32°07' W 081°08'0 0.0
2017-Nov-11 22:57N 32°07' W 081°08'0 0.0
2017-Nov-11 22:27N 32°07' W 081°08'0 0.0
2017-Nov-11 21:57N 32°07' W 081°08'0 0.0
2017-Nov-11 21:27N 32°07' W 081°08'0 0.0
2017-Nov-11 20:57N 32°07' W 081°08'0 0.0
2017-Nov-11 20:27N 32°07' W 081°08'0 0.0
2017-Nov-11 19:51N 32°07' W 081°08'0 0.0
2017-Nov-11 19:27N 32°07' W 081°08'0 0.0
2017-Nov-11 18:57N 32°07' W 081°08'0 0.0
2017-Nov-11 18:27N 32°07' W 081°08'0 0.0
2017-Nov-11 17:57N 32°07' W 081°08'0 0.0
2017-Nov-11 17:15N 32°07' W 081°08'0 0.0
2017-Nov-11 16:57N 32°07' W 081°08'0 0.0
2017-Nov-11 16:21N 32°07' W 081°08'0 0.0
2017-Nov-11 15:51N 32°07' W 081°08'0 0.0
2017-Nov-11 15:27N 32°07' W 081°08'0 0.0
2017-Nov-11 14:51N 32°07' W 081°08'0 0.0
2017-Nov-11 14:27N 32°07' W 081°08'0 0.0
2017-Nov-11 13:57N 32°07' W 081°08'0 0.0
2017-Nov-11 13:27N 32°07' W 081°08'0 0.0
2017-Nov-11 12:58N 32°07' W 081°08'1 1.7
2017-Nov-11 12:30N 32°08' W 081°08'1 2.5
2017-Nov-11 12:00N 32°07' W 081°08'2 4.4
2017-Nov-11 11:30N 32°05' W 081°06'3 5.6
2017-Nov-11 11:00N 32°05' W 081°03'4 7.6
2017-Nov-11 10:30N 32°04' W 080°58'510.5
2017-Nov-11 10:00N 32°02' W 080°53'611.3
2017-Nov-11 09:30N 31°59' W 080°47'612.6
2017-Nov-11 09:00N 31°57' W 080°40'5 9.1
2017-Nov-11 08:30N 31°55' W 080°35'4 8.5
2017-Nov-11 08:00N 31°54' W 080°30'3 6.1
2017-Nov-11 07:30N 31°52' W 080°27'1 1.6
2017-Nov-11 07:00N 31°53' W 080°26'1 1.6
2017-Nov-11 06:29N 31°53' W 080°25'2 2.0
2017-Nov-11 05:38N 31°54' W 080°23'3 8.5
2017-Nov-11 05:20N 31°55' W 080°21'  

Dump ship's entire track history